Time;durP1;ratioP1;P1;durP2;ratioP2;P2;SDS_P1;SDS_P2;PMS_P1;PMS_P2;Temp;Humidity;BMP_temperature;BMP_pressure;BME280_temperature;BME280_humidity;BME280_pressure;Samples;Min_cycle;Max_cycle;Signal;HPM_P1;HPM_P2
2021/03/02 00:02:35;;;;;;;91.22;37.17;;;;;;;;;;5034259;28;20072;-66
2021/03/02 00:05:20;;;;;;;85.18;34.58;;;;;;;;;;5019516;28;20041;-66
2021/03/02 00:08:05;;;;;;;91.10;35.15;;;;;;;;;;5031947;28;20079;-66
2021/03/02 00:10:51;;;;;;;86.95;35.47;;;;;;;;;;5031808;28;20049;-67
2021/03/02 00:13:36;;;;;;;80.20;32.38;;;;;;;;;;5020812;28;20053;-67
2021/03/02 00:16:27;;;;;;;76.72;32.17;;;;;;;;;;5034496;28;20045;-67
2021/03/02 00:19:16;;;;;;;76.60;30.77;;;;;;;;;;5031757;28;20041;-65
2021/03/02 00:22:20;;;;;;;77.00;31.48;;;;;;;;;;5035457;28;20096;-67
2021/03/02 00:25:06;;;;;;;95.40;36.30;;;;;;;;;;5035235;28;20073;-67
2021/03/02 00:27:51;;;;;;;94.22;37.20;;;;;;;;;;5034740;28;20135;-66
2021/03/02 00:30:36;;;;;;;84.57;33.00;;;;;;;;;;5016599;28;20046;-67
2021/03/02 00:33:22;;;;;;;87.93;34.65;;;;;;;;;;5025829;28;20132;-66
2021/03/02 00:36:07;;;;;;;93.63;36.63;;;;;;;;;;5033047;28;20041;-66
2021/03/02 00:38:53;;;;;;;93.32;35.42;;;;;;;;;;5032961;28;20453;-65
2021/03/02 00:41:38;;;;;;;108.75;39.08;;;;;;;;;;5032219;28;20045;-65
2021/03/02 00:44:24;;;;;;;94.38;36.65;;;;;;;;;;5031207;28;20045;-65
2021/03/02 00:47:09;;;;;;;91.30;35.30;;;;;;;;;;5016886;28;20048;-65
2021/03/02 00:49:54;;;;;;;87.63;34.70;;;;;;;;;;5031895;28;20054;-65
2021/03/02 00:52:39;;;;;;;100.88;39.22;;;;;;;;;;5031006;28;20243;-65
2021/03/02 00:55:25;;;;;;;96.57;36.15;;;;;;;;;;5030809;28;20565;-65
2021/03/02 00:58:13;;;;;;;104.82;38.42;;;;;;;;;;5031548;28;20513;-65
2021/03/02 01:00:58;;;;;;;106.63;39.63;;;;;;;;;;5030841;28;20482;-65
2021/03/02 01:03:45;;;;;;;108.57;39.60;;;;;;;;;;5030014;28;20056;-65
2021/03/02 01:06:33;;;;;;;109.00;40.03;;;;;;;;;;5030439;28;20049;-65
2021/03/02 01:09:18;;;;;;;110.47;39.88;;;;;;;;;;5030446;28;20056;-64
2021/03/02 01:12:07;;;;;;;125.68;39.92;;;;;;;;;;5030498;28;20049;-65
2021/03/02 01:14:58;;;;;;;114.10;39.47;;;;;;;;;;5030233;28;20056;-65
2021/03/02 01:17:43;;;;;;;120.85;42.78;;;;;;;;;;5016616;28;20038;-65
2021/03/02 01:20:28;;;;;;;108.50;38.22;;;;;;;;;;5031884;28;20072;-65
2021/03/02 01:23:13;;;;;;;106.40;39.72;;;;;;;;;;5031814;28;20045;-65
2021/03/02 01:25:59;;;;;;;104.35;38.90;;;;;;;;;;5010392;28;20132;-65
2021/03/02 01:28:44;;;;;;;111.10;39.03;;;;;;;;;;5011749;28;20045;-65
2021/03/02 01:31:29;;;;;;;102.32;38.25;;;;;;;;;;5011812;28;20462;-64
2021/03/02 01:34:15;;;;;;;109.20;38.60;;;;;;;;;;4996559;28;20498;-64
2021/03/02 01:37:00;;;;;;;99.18;37.78;;;;;;;;;;5011761;28;20053;-64
2021/03/02 01:39:45;;;;;;;97.97;37.88;;;;;;;;;;5011268;28;20077;-64
2021/03/02 01:42:31;;;;;;;109.00;39.97;;;;;;;;;;5012135;28;20077;-64
2021/03/02 01:45:17;;;;;;;100.78;36.90;;;;;;;;;;5020347;28;20048;-65
2021/03/02 01:48:03;;;;;;;92.70;35.72;;;;;;;;;;5034746;28;20127;-64
2021/03/02 01:50:49;;;;;;;100.85;37.08;;;;;;;;;;5035028;28;20072;-65
2021/03/02 01:53:34;;;;;;;103.07;38.67;;;;;;;;;;5020137;28;20124;-64
2021/03/02 01:56:19;;;;;;;109.80;38.42;;;;;;;;;;5033852;28;20049;-64
2021/03/02 01:59:04;;;;;;;97.30;36.00;;;;;;;;;;5019853;28;20052;-64
2021/03/02 02:01:50;;;;;;;109.47;41.28;;;;;;;;;;5020036;28;20048;-64
2021/03/02 02:04:56;;;;;;;95.88;36.40;;;;;;;;;;5019707;28;20112;-65
2021/03/02 02:07:42;;;;;;;99.43;36.75;;;;;;;;;;5023479;28;20049;-65
2021/03/02 02:10:29;;;;;;;95.38;35.85;;;;;;;;;;5019751;28;20418;-64
2021/03/02 02:13:18;;;;;;;95.05;36.13;;;;;;;;;;5019750;28;20052;-64
2021/03/02 02:16:05;;;;;;;100.57;36.60;;;;;;;;;;5018921;28;20045;-64
2021/03/02 02:18:50;;;;;;;103.63;38.53;;;;;;;;;;5019371;28;20502;-64
2021/03/02 02:21:45;;;;;;;91.47;34.33;;;;;;;;;;5019529;28;20053;-65
2021/03/02 02:24:30;;;;;;;94.18;37.00;;;;;;;;;;5034324;28;20046;-64
2021/03/02 02:27:15;;;;;;;95.70;38.03;;;;;;;;;;5018596;28;20041;-64
2021/03/02 02:30:00;;;;;;;108.03;38.65;;;;;;;;;;5033150;28;20053;-64
2021/03/02 02:32:46;;;;;;;111.68;39.17;;;;;;;;;;5034194;28;20041;-64
2021/03/02 02:35:32;;;;;;;106.82;37.75;;;;;;;;;;5019258;28;20061;-64
2021/03/02 02:38:17;;;;;;;110.72;39.90;;;;;;;;;;5032868;28;20050;-65
2021/03/02 02:41:02;;;;;;;114.50;42.22;;;;;;;;;;5019123;28;20127;-65
2021/03/02 02:43:48;;;;;;;116.75;39.63;;;;;;;;;;5019205;28;20045;-66
2021/03/02 02:46:33;;;;;;;103.38;39.97;;;;;;;;;;5017379;28;20045;-64
2021/03/02 02:49:19;;;;;;;114.53;41.42;;;;;;;;;;4999228;28;20042;-64
2021/03/02 02:52:04;;;;;;;117.25;40.72;;;;;;;;;;4999457;28;20057;-64
2021/03/02 02:54:49;;;;;;;116.18;40.58;;;;;;;;;;5013384;28;20049;-64
2021/03/02 02:57:35;;;;;;;119.88;41.63;;;;;;;;;;5005468;28;20042;-64
2021/03/02 03:00:20;;;;;;;132.75;42.67;;;;;;;;;;5019557;28;20117;-67
2021/03/02 03:03:07;;;;;;;128.82;42.58;;;;;;;;;;5034976;28;20045;-66
2021/03/02 03:05:53;;;;;;;119.13;40.20;;;;;;;;;;5019803;28;20049;-67
2021/03/02 03:08:39;;;;;;;126.03;41.53;;;;;;;;;;5018831;28;20045;-67
2021/03/02 03:11:25;;;;;;;109.80;38.20;;;;;;;;;;5020706;28;20099;-67
2021/03/02 03:14:11;;;;;;;121.10;40.63;;;;;;;;;;5036536;28;20109;-66
2021/03/02 03:16:57;;;;;;;103.45;36.65;;;;;;;;;;5021472;28;20042;-66
2021/03/02 03:19:42;;;;;;;113.82;40.03;;;;;;;;;;5020020;28;20042;-67
2021/03/02 03:22:28;;;;;;;107.82;35.22;;;;;;;;;;5022151;28;20068;-67
2021/03/02 03:25:13;;;;;;;121.40;41.40;;;;;;;;;;5036917;28;20056;-67
2021/03/02 03:28:00;;;;;;;124.00;40.45;;;;;;;;;;5035710;28;20045;-67
2021/03/02 03:30:45;;;;;;;121.65;39.72;;;;;;;;;;5036670;28;20049;-67
2021/03/02 03:33:30;;;;;;;117.40;39.70;;;;;;;;;;5022403;28;20505;-67
2021/03/02 03:36:15;;;;;;;123.35;41.13;;;;;;;;;;5020853;28;20103;-66
2021/03/02 03:39:00;;;;;;;113.30;38.03;;;;;;;;;;5035404;28;20048;-67
2021/03/02 03:41:45;;;;;;;122.43;41.25;;;;;;;;;;5020456;28;20046;-67
2021/03/02 03:44:31;;;;;;;111.45;39.60;;;;;;;;;;5036075;28;20049;-67
2021/03/02 03:47:16;;;;;;;112.13;36.75;;;;;;;;;;5035408;28;20076;-67
2021/03/02 03:50:02;;;;;;;122.00;39.83;;;;;;;;;;5035346;28;20056;-66
2021/03/02 03:52:51;;;;;;;105.35;37.67;;;;;;;;;;5020407;28;20038;-66
2021/03/02 03:55:37;;;;;;;119.22;40.08;;;;;;;;;;5035051;28;20146;-67
2021/03/02 03:58:23;;;;;;;123.97;38.85;;;;;;;;;;5020403;28;20057;-67
2021/03/02 04:01:08;;;;;;;103.40;36.47;;;;;;;;;;5034645;28;20545;-66
2021/03/02 04:03:53;;;;;;;115.18;36.53;;;;;;;;;;5020918;28;20049;-67
2021/03/02 04:06:39;;;;;;;101.63;36.50;;;;;;;;;;5020015;28;20056;-67
2021/03/02 04:09:24;;;;;;;111.38;37.47;;;;;;;;;;5019891;28;20057;-66
2021/03/02 04:12:12;;;;;;;106.60;36.25;;;;;;;;;;5035758;28;20063;-67
2021/03/02 04:14:57;;;;;;;98.53;36.53;;;;;;;;;;5014613;28;20042;-66
2021/03/02 04:17:52;;;;;;;116.40;38.80;;;;;;;;;;5014519;28;20407;-67
2021/03/02 04:20:38;;;;;;;118.93;38.35;;;;;;;;;;5023525;28;20061;-66
2021/03/02 04:23:24;;;;;;;105.10;36.47;;;;;;;;;;5021015;28;20509;-66
2021/03/02 04:26:09;;;;;;;109.40;35.15;;;;;;;;;;5035068;28;20413;-66
2021/03/02 04:28:54;;;;;;;111.50;36.88;;;;;;;;;;5034752;28;20529;-66
2021/03/02 04:31:40;;;;;;;104.10;35.65;;;;;;;;;;5034902;28;20080;-67
2021/03/02 04:34:25;;;;;;;115.78;35.88;;;;;;;;;;5019830;28;20045;-66
2021/03/02 04:37:10;;;;;;;97.68;32.20;;;;;;;;;;5034799;28;20067;-67
2021/03/02 04:39:56;;;;;;;111.13;35.60;;;;;;;;;;5033843;28;20050;-67
2021/03/02 04:42:42;;;;;;;119.32;35.95;;;;;;;;;;5033328;28;20041;-67
2021/03/02 04:45:27;;;;;;;115.85;38.13;;;;;;;;;;5033201;28;20077;-66
2021/03/02 04:48:12;;;;;;;114.28;36.95;;;;;;;;;;5032647;28;20052;-66
2021/03/02 04:50:58;;;;;;;123.53;40.80;;;;;;;;;;5031810;28;20088;-67
2021/03/02 04:53:43;;;;;;;118.53;38.78;;;;;;;;;;5033024;28;20049;-67
2021/03/02 04:56:29;;;;;;;120.35;40.85;;;;;;;;;;5032312;28;20124;-67
2021/03/02 04:59:14;;;;;;;133.57;40.63;;;;;;;;;;5032367;28;20723;-67
2021/03/02 05:01:59;;;;;;;136.05;44.60;;;;;;;;;;5031678;28;20048;-67
2021/03/02 05:04:45;;;;;;;129.68;42.13;;;;;;;;;;5033085;28;20168;-66
2021/03/02 05:07:31;;;;;;;125.07;40.13;;;;;;;;;;5033098;28;20072;-66
2021/03/02 05:10:16;;;;;;;110.70;38.25;;;;;;;;;;5034171;28;20049;-67
2021/03/02 05:13:01;;;;;;;116.78;37.90;;;;;;;;;;5031920;28;20080;-67
2021/03/02 05:15:47;;;;;;;118.90;39.55;;;;;;;;;;5032096;28;20046;-66
2021/03/02 05:18:32;;;;;;;129.70;41.55;;;;;;;;;;5034392;28;20054;-67
2021/03/02 05:21:17;;;;;;;101.80;36.60;;;;;;;;;;5021895;28;20477;-67
2021/03/02 05:24:03;;;;;;;114.82;38.50;;;;;;;;;;5026702;28;20166;-67
2021/03/02 05:26:48;;;;;;;104.00;36.28;;;;;;;;;;5018642;28;20046;-66
2021/03/02 05:29:34;;;;;;;109.43;38.25;;;;;;;;;;5026374;28;20497;-67
2021/03/02 05:32:19;;;;;;;123.70;38.65;;;;;;;;;;5035647;28;20045;-66
2021/03/02 05:35:05;;;;;;;107.68;38.00;;;;;;;;;;5037174;28;20038;-66
2021/03/02 05:37:50;;;;;;;123.93;39.65;;;;;;;;;;5022051;28;20048;-66
2021/03/02 05:40:35;;;;;;;133.88;41.42;;;;;;;;;;5036756;28;20120;-67
2021/03/02 05:43:20;;;;;;;123.97;40.85;;;;;;;;;;5035375;28;20057;-67
2021/03/02 05:46:06;;;;;;;102.60;34.50;;;;;;;;;;5035426;28;20045;-66
2021/03/02 05:48:51;;;;;;;116.78;39.03;;;;;;;;;;5036844;28;20517;-67
2021/03/02 05:51:37;;;;;;;133.02;41.72;;;;;;;;;;5036114;28;20120;-67
2021/03/02 05:54:22;;;;;;;122.78;41.20;;;;;;;;;;5019845;28;20524;-66
2021/03/02 05:57:07;;;;;;;139.40;43.42;;;;;;;;;;5036901;28;20080;-67
2021/03/02 05:59:54;;;;;;;119.95;38.33;;;;;;;;;;5036637;28;20501;-66
2021/03/02 06:02:39;;;;;;;117.85;38.00;;;;;;;;;;5022476;28;20041;-67
2021/03/02 06:05:25;;;;;;;118.55;39.22;;;;;;;;;;5021934;28;20056;-67
2021/03/02 06:08:10;;;;;;;117.60;36.78;;;;;;;;;;5036641;28;20045;-67
2021/03/02 06:10:56;;;;;;;130.10;39.60;;;;;;;;;;5020545;28;20069;-66
2021/03/02 06:13:41;;;;;;;143.48;42.22;;;;;;;;;;5035664;28;20056;-67
2021/03/02 06:16:29;;;;;;;89.85;31.10;;;;;;;;;;5037119;28;20121;-66
2021/03/02 06:19:14;;;;;;;122.10;39.65;;;;;;;;;;5021437;28;20417;-66
2021/03/02 06:22:00;;;;;;;131.57;39.65;;;;;;;;;;5019868;28;20488;-67
2021/03/02 06:24:45;;;;;;;137.45;41.40;;;;;;;;;;5020994;28;20041;-66
2021/03/02 06:27:31;;;;;;;121.63;38.33;;;;;;;;;;5036803;28;20045;-67
2021/03/02 06:30:16;;;;;;;123.97;40.22;;;;;;;;;;5034960;28;20636;-66
2021/03/02 06:33:01;;;;;;;135.27;38.35;;;;;;;;;;5033936;28;20497;-66
2021/03/02 06:35:47;;;;;;;151.02;39.80;;;;;;;;;;5036946;28;20525;-66
2021/03/02 06:38:36;;;;;;;127.65;36.42;;;;;;;;;;5035593;28;20136;-67
2021/03/02 06:41:21;;;;;;;174.38;39.08;;;;;;;;;;5036638;28;20490;-66
2021/03/02 06:44:13;;;;;;;148.73;41.42;;;;;;;;;;5036163;28;20049;-65
2021/03/02 06:47:04;;;;;;;111.78;37.78;;;;;;;;;;5022030;28;20437;-66
2021/03/02 06:49:49;;;;;;;145.38;40.95;;;;;;;;;;5035687;28;20124;-66
2021/03/02 06:52:35;;;;;;;124.10;39.20;;;;;;;;;;5034666;28;20053;-67
2021/03/02 06:55:20;;;;;;;128.63;36.70;;;;;;;;;;5036233;28;20041;-67
2021/03/02 06:58:16;;;;;;;144.98;38.20;;;;;;;;;;5035821;28;20041;-67
2021/03/02 07:01:01;;;;;;;136.70;39.47;;;;;;;;;;5034761;28;20486;-66
2021/03/02 07:03:46;;;;;;;127.32;36.03;;;;;;;;;;5033973;28;20410;-67
2021/03/02 07:06:36;;;;;;;123.68;35.97;;;;;;;;;;5034607;28;20041;-66
2021/03/02 07:09:22;;;;;;;118.72;36.80;;;;;;;;;;5031702;28;20075;-67
2021/03/02 07:12:08;;;;;;;116.20;34.03;;;;;;;;;;5026469;28;20045;-67
2021/03/02 07:14:53;;;;;;;132.45;39.13;;;;;;;;;;5018794;28;20050;-66
2021/03/02 07:17:40;;;;;;;119.75;35.15;;;;;;;;;;5021561;28;20041;-67
2021/03/02 07:20:27;;;;;;;90.22;32.05;;;;;;;;;;5027014;28;20049;-67
2021/03/02 07:23:13;;;;;;;96.05;31.33;;;;;;;;;;5024493;28;20608;-67
2021/03/02 07:25:58;;;;;;;83.43;32.58;;;;;;;;;;5014340;28;20498;-67
2021/03/02 07:28:43;;;;;;;82.22;32.22;;;;;;;;;;5026635;28;20073;-67
2021/03/02 07:31:29;;;;;;;89.45;31.58;;;;;;;;;;5033869;28;20136;-66
2021/03/02 07:34:14;;;;;;;86.25;30.65;;;;;;;;;;5020460;28;20072;-66
2021/03/02 07:36:59;;;;;;;74.88;30.15;;;;;;;;;;5034722;28;20049;-67
2021/03/02 07:39:59;;;;;;;77.93;33.13;;;;;;;;;;5019055;28;20045;-66
2021/03/02 07:42:44;;;;;;;73.10;30.98;;;;;;;;;;5030440;28;20421;-66
2021/03/02 07:45:30;;;;;;;70.68;28.65;;;;;;;;;;5018117;28;20493;-67
2021/03/02 07:48:27;;;;;;;72.95;29.10;;;;;;;;;;5034220;28;20045;-67
2021/03/02 07:51:22;;;;;;;71.07;28.17;;;;;;;;;;5033817;28;20056;-66
2021/03/02 07:54:17;;;;;;;58.67;27.80;;;;;;;;;;5033264;28;20041;-67
2021/03/02 07:57:19;;;;;;;71.35;29.10;;;;;;;;;;5019372;28;20046;-67
2021/03/02 08:00:18;;;;;;;60.58;28.05;;;;;;;;;;5032755;28;20045;-67
2021/03/02 08:03:19;;;;;;;62.72;27.88;;;;;;;;;;5014282;28;20046;-66
2021/03/02 08:06:24;;;;;;;63.53;27.58;;;;;;;;;;5015013;28;20155;-67
2021/03/02 08:09:22;;;;;;;61.63;26.35;;;;;;;;;;5012129;28;20129;-67
2021/03/02 08:12:26;;;;;;;52.33;24.80;;;;;;;;;;5029374;28;20047;-67
2021/03/02 08:15:14;;;;;;;53.45;25.77;;;;;;;;;;5033698;28;20140;-67
2021/03/02 08:18:18;;;;;;;57.13;26.15;;;;;;;;;;5014234;28;20046;-66
2021/03/02 08:21:10;;;;;;;61.03;28.58;;;;;;;;;;5016678;28;20037;-66
2021/03/02 08:23:59;;;;;;;49.08;25.65;;;;;;;;;;5018720;28;20041;-67
2021/03/02 08:26:44;;;;;;;55.78;26.88;;;;;;;;;;5019343;28;20498;-67
2021/03/02 08:29:30;;;;;;;43.05;22.70;;;;;;;;;;5033794;28;20068;-66
2021/03/02 08:32:15;;;;;;;45.88;25.00;;;;;;;;;;5031358;28;20037;-65
2021/03/02 08:35:07;;;;;;;44.28;23.77;;;;;;;;;;5033249;28;20434;-67
2021/03/02 08:37:53;;;;;;;41.80;22.47;;;;;;;;;;5033567;28;20045;-66
2021/03/02 08:40:39;;;;;;;42.80;23.27;;;;;;;;;;5018351;28;20044;-66
2021/03/02 08:43:25;;;;;;;43.67;23.55;;;;;;;;;;5032926;28;20041;-67
2021/03/02 08:46:10;;;;;;;43.25;23.05;;;;;;;;;;5019040;28;20053;-67
2021/03/02 08:48:56;;;;;;;39.08;22.42;;;;;;;;;;5016647;28;20074;-65
2021/03/02 08:51:41;;;;;;;42.35;23.08;;;;;;;;;;5016199;28;20053;-65
2021/03/02 08:54:26;;;;;;;40.38;23.13;;;;;;;;;;5011996;28;20042;-65
2021/03/02 08:57:12;;;;;;;36.95;21.52;;;;;;;;;;5011998;28;20050;-66
2021/03/02 08:59:57;;;;;;;36.85;22.30;;;;;;;;;;4997362;28;20101;-65
2021/03/02 09:02:46;;;;;;;36.05;22.10;;;;;;;;;;5002831;28;20045;-65
2021/03/02 09:05:31;;;;;;;41.63;23.92;;;;;;;;;;5031593;28;20112;-65
2021/03/02 09:08:16;;;;;;;40.05;23.88;;;;;;;;;;5031544;28;20454;-64
2021/03/02 09:11:05;;;;;;;39.47;23.63;;;;;;;;;;5031810;28;20049;-64
2021/03/02 09:13:51;;;;;;;37.65;22.05;;;;;;;;;;5030793;28;20071;-64
2021/03/02 09:16:37;;;;;;;32.10;19.27;;;;;;;;;;5016826;28;20179;-66
2021/03/02 09:19:22;;;;;;;33.05;20.17;;;;;;;;;;5031433;28;20116;-65
2021/03/02 09:22:08;;;;;;;33.53;21.02;;;;;;;;;;5031506;28;20049;-67
2021/03/02 09:24:56;;;;;;;25.77;18.38;;;;;;;;;;5030935;28;20059;-64
2021/03/02 09:27:42;;;;;;;28.80;19.13;;;;;;;;;;5031311;28;20405;-65
2021/03/02 09:30:27;;;;;;;29.42;19.35;;;;;;;;;;5016514;28;20041;-65
2021/03/02 09:33:15;;;;;;;28.58;18.83;;;;;;;;;;5015699;28;20240;-65
2021/03/02 09:36:00;;;;;;;27.55;19.40;;;;;;;;;;5011744;28;20550;-65
2021/03/02 09:38:46;;;;;;;27.38;18.73;;;;;;;;;;5011459;28;20057;-65
2021/03/02 09:41:32;;;;;;;29.35;18.30;;;;;;;;;;5011693;28;20049;-64
2021/03/02 09:44:24;;;;;;;33.92;20.80;;;;;;;;;;5016416;28;20184;-64
2021/03/02 09:47:10;;;;;;;33.95;21.23;;;;;;;;;;5016500;28;20460;-64
2021/03/02 09:49:56;;;;;;;30.67;19.45;;;;;;;;;;5016425;28;20060;-64
2021/03/02 09:52:55;;;;;;;31.77;20.55;;;;;;;;;;5021120;28;20417;-65
2021/03/02 09:55:42;;;;;;;31.67;20.25;;;;;;;;;;5021104;28;20053;-65
2021/03/02 09:58:28;;;;;;;31.00;20.85;;;;;;;;;;5022130;28;20049;-65
2021/03/02 10:01:13;;;;;;;29.50;19.58;;;;;;;;;;5022878;28;20398;-65
2021/03/02 10:04:07;;;;;;;33.15;21.83;;;;;;;;;;5026089;28;20041;-65
2021/03/02 10:06:52;;;;;;;31.92;20.05;;;;;;;;;;5024302;28;21299;-65
2021/03/02 10:09:37;;;;;;;30.70;21.52;;;;;;;;;;5030662;28;20048;-65
2021/03/02 10:12:23;;;;;;;33.08;20.10;;;;;;;;;;5024979;28;20505;-65
2021/03/02 10:15:22;;;;;;;28.15;18.08;;;;;;;;;;5026044;28;20064;-65
2021/03/02 10:18:27;;;;;;;30.27;21.10;;;;;;;;;;5025067;28;20046;-65
2021/03/02 10:21:13;;;;;;;27.73;19.23;;;;;;;;;;5024643;28;20049;-65
2021/03/02 10:23:59;;;;;;;28.98;19.13;;;;;;;;;;5025743;28;20084;-65
2021/03/02 10:26:44;;;;;;;29.30;19.48;;;;;;;;;;5028742;28;20056;-65
2021/03/02 10:29:30;;;;;;;32.13;19.98;;;;;;;;;;5027246;28;20188;-65
2021/03/02 10:32:16;;;;;;;25.52;19.08;;;;;;;;;;5025247;28;20049;-65
2021/03/02 10:35:01;;;;;;;28.73;19.27;;;;;;;;;;5029871;28;20045;-65
2021/03/02 10:37:47;;;;;;;29.38;20.02;;;;;;;;;;5030849;28;20049;-65
2021/03/02 10:40:32;;;;;;;26.23;18.80;;;;;;;;;;5033719;28;20049;-65
2021/03/02 10:43:18;;;;;;;25.10;18.30;;;;;;;;;;5034153;28;20038;-65
2021/03/02 10:46:03;;;;;;;26.67;19.17;;;;;;;;;;5033428;28;20041;-65
2021/03/02 10:48:48;;;;;;;29.35;20.38;;;;;;;;;;5033722;28;20099;-65
2021/03/02 10:51:34;;;;;;;27.77;18.63;;;;;;;;;;5033024;28;20038;-65
2021/03/02 10:54:19;;;;;;;25.13;17.58;;;;;;;;;;5033992;28;20049;-65
2021/03/02 10:57:04;;;;;;;28.17;21.23;;;;;;;;;;5033909;28;20053;-65
2021/03/02 10:59:50;;;;;;;26.98;19.05;;;;;;;;;;5033499;28;20046;-65
2021/03/02 11:02:35;;;;;;;31.05;19.70;;;;;;;;;;5032731;28;20041;-65
2021/03/02 11:05:21;;;;;;;25.73;18.20;;;;;;;;;;5033445;28;20516;-65
2021/03/02 11:08:06;;;;;;;28.05;18.80;;;;;;;;;;5024443;28;20053;-65
2021/03/02 11:10:51;;;;;;;29.65;21.20;;;;;;;;;;5022494;28;20046;-65
2021/03/02 11:13:37;;;;;;;27.55;18.50;;;;;;;;;;5049583;23;20524;-65
2021/03/02 11:16:23;;;;;;;27.55;20.30;;;;;;;;;;5030885;28;20049;-65
2021/03/02 11:19:08;;;;;;;25.90;19.48;;;;;;;;;;5017627;28;20124;-65
2021/03/02 11:21:53;;;;;;;26.17;19.45;;;;;;;;;;5017574;28;20042;-65
2021/03/02 11:24:38;;;;;;;26.63;20.70;;;;;;;;;;5029099;28;20120;-66
2021/03/02 11:27:23;;;;;;;23.30;18.02;;;;;;;;;;5032773;28;20053;-66
2021/03/02 11:30:09;;;;;;;24.73;19.50;;;;;;;;;;5032961;28;20057;-66
2021/03/02 11:32:54;;;;;;;25.65;18.25;;;;;;;;;;5032783;28;20653;-66
2021/03/02 11:35:40;;;;;;;26.10;18.20;;;;;;;;;;5029125;28;20092;-66
2021/03/02 11:38:25;;;;;;;25.13;18.83;;;;;;;;;;5031761;28;20108;-67
2021/03/02 11:41:11;;;;;;;22.95;18.27;;;;;;;;;;5027194;28;20467;-66
2021/03/02 11:43:56;;;;;;;22.75;16.98;;;;;;;;;;5026454;28;20413;-66
2021/03/02 11:46:41;;;;;;;25.98;18.10;;;;;;;;;;5030153;28;20081;-67
2021/03/02 11:49:27;;;;;;;24.20;17.10;;;;;;;;;;5031237;28;20037;-66
2021/03/02 11:52:12;;;;;;;25.58;18.00;;;;;;;;;;5029326;28;20500;-66
2021/03/02 11:54:58;;;;;;;25.05;19.20;;;;;;;;;;5030540;28;20049;-66
2021/03/02 11:57:43;;;;;;;23.70;19.15;;;;;;;;;;5030664;28;20088;-67
2021/03/02 12:00:29;;;;;;;21.63;17.15;;;;;;;;;;5031527;28;20045;-67
2021/03/02 12:03:14;;;;;;;24.75;18.45;;;;;;;;;;5029670;28;20042;-67
2021/03/02 12:05:59;;;;;;;26.05;19.42;;;;;;;;;;5029466;28;20037;-66
2021/03/02 12:08:45;;;;;;;23.05;17.45;;;;;;;;;;5030691;28;20049;-67
2021/03/02 12:11:30;;;;;;;27.45;19.77;;;;;;;;;;5028349;28;20433;-67
2021/03/02 12:14:15;;;;;;;27.52;19.35;;;;;;;;;;5025596;28;20045;-67
2021/03/02 12:17:02;;;;;;;24.13;17.80;;;;;;;;;;5030778;28;20045;-67
2021/03/02 12:19:47;;;;;;;22.25;18.25;;;;;;;;;;5001364;28;20497;-67
2021/03/02 12:22:32;;;;;;;24.15;17.90;;;;;;;;;;5031820;28;20128;-67
2021/03/02 12:25:17;;;;;;;22.23;17.55;;;;;;;;;;5031277;28;20136;-67
2021/03/02 12:28:02;;;;;;;20.73;17.48;;;;;;;;;;5029716;28;20034;-67
2021/03/02 12:30:48;;;;;;;22.27;16.77;;;;;;;;;;5031285;28;20665;-65
2021/03/02 12:33:33;;;;;;;20.65;17.52;;;;;;;;;;5030962;28;20073;-64
2021/03/02 12:36:19;;;;;;;20.63;17.10;;;;;;;;;;5029183;28;20119;-66
2021/03/02 12:39:04;;;;;;;20.63;18.23;;;;;;;;;;5028719;28;20041;-66
2021/03/02 12:41:49;;;;;;;32.28;17.92;;;;;;;;;;5031125;28;20049;-66
2021/03/02 12:44:35;;;;;;;25.00;17.60;;;;;;;;;;5028391;28;20042;-66
2021/03/02 12:47:20;;;;;;;19.48;16.90;;;;;;;;;;5029182;28;20041;-65
2021/03/02 12:50:08;;;;;;;21.92;17.20;;;;;;;;;;5026147;28;20401;-65
2021/03/02 12:52:53;;;;;;;19.52;16.25;;;;;;;;;;5028292;28;20064;-65
2021/03/02 12:55:40;;;;;;;21.35;17.20;;;;;;;;;;5030524;28;20041;-68
2021/03/02 12:58:26;;;;;;;19.10;15.90;;;;;;;;;;5012704;28;20042;-65
2021/03/02 13:01:11;;;;;;;18.52;16.40;;;;;;;;;;5027027;28;20042;-67
2021/03/02 13:03:57;;;;;;;19.35;16.30;;;;;;;;;;5030282;28;20049;-65
2021/03/02 13:06:42;;;;;;;17.75;15.15;;;;;;;;;;5029819;28;20041;-66
2021/03/02 13:09:27;;;;;;;18.88;15.40;;;;;;;;;;5028832;28;20045;-67
2021/03/02 13:12:13;;;;;;;20.60;16.98;;;;;;;;;;5031250;28;20660;-65
2021/03/02 13:14:58;;;;;;;20.02;15.88;;;;;;;;;;5031022;28;20042;-65
2021/03/02 13:17:47;;;;;;;19.73;17.20;;;;;;;;;;5015074;28;20386;-67
2021/03/02 13:20:32;;;;;;;17.88;15.73;;;;;;;;;;5030201;28;20042;-67
2021/03/02 13:23:20;;;;;;;18.73;16.60;;;;;;;;;;5030901;28;20049;-67
2021/03/02 13:26:05;;;;;;;19.50;16.98;;;;;;;;;;5029945;28;20092;-67
2021/03/02 13:28:50;;;;;;;100.40;34.08;;;;;;;;;;5010096;28;20045;-67
2021/03/02 13:31:35;;;;;;;16.85;14.77;;;;;;;;;;5028892;28;20048;-67
2021/03/02 13:34:21;;;;;;;16.80;15.00;;;;;;;;;;5010061;28;20727;-67
2021/03/02 13:37:06;;;;;;;17.52;15.63;;;;;;;;;;5026147;28;20053;-67
2021/03/02 13:39:51;;;;;;;17.48;15.65;;;;;;;;;;5012512;28;20429;-67
2021/03/02 13:42:40;;;;;;;17.35;15.43;;;;;;;;;;5034477;28;20049;-67
2021/03/02 13:45:26;;;;;;;17.35;15.25;;;;;;;;;;5017325;28;20072;-66
2021/03/02 13:48:11;;;;;;;17.25;15.45;;;;;;;;;;5033466;28;20037;-66
2021/03/02 13:50:58;;;;;;;17.92;15.25;;;;;;;;;;5027424;28;20061;-66
2021/03/02 13:53:43;;;;;;;16.13;14.45;;;;;;;;;;5016815;28;20041;-66
2021/03/02 13:56:28;;;;;;;16.00;14.40;;;;;;;;;;5032020;28;20050;-66
2021/03/02 13:59:14;;;;;;;19.02;14.80;;;;;;;;;;5032501;28;20484;-66
2021/03/02 14:01:59;;;;;;;16.08;14.30;;;;;;;;;;5032591;28;20046;-66
2021/03/02 14:04:44;;;;;;;16.63;14.90;;;;;;;;;;5034533;28;20398;-66
2021/03/02 14:07:30;;;;;;;20.60;14.52;;;;;;;;;;5034725;28;20124;-68
2021/03/02 14:10:15;;;;;;;15.77;14.18;;;;;;;;;;5002760;28;20149;-68
2021/03/02 14:13:01;;;;;;;16.13;13.82;;;;;;;;;;5015147;28;20065;-68
2021/03/02 14:15:46;;;;;;;19.63;14.57;;;;;;;;;;5007075;28;20053;-68
2021/03/02 14:18:33;;;;;;;16.02;14.40;;;;;;;;;;5032073;28;20045;-68
2021/03/02 14:21:18;;;;;;;13.73;12.32;;;;;;;;;;5031550;28;20532;-68
2021/03/02 14:24:04;;;;;;;13.15;11.85;;;;;;;;;;5035113;28;20044;-67
2021/03/02 14:26:49;;;;;;;12.63;11.43;;;;;;;;;;5033217;28;20041;-68
2021/03/02 14:29:35;;;;;;;14.07;12.73;;;;;;;;;;5033880;28;20045;-68
2021/03/02 14:32:20;;;;;;;14.82;13.18;;;;;;;;;;5030065;28;20050;-69
2021/03/02 14:35:06;;;;;;;15.82;12.82;;;;;;;;;;5032087;28;20405;-68
2021/03/02 14:37:52;;;;;;;16.48;12.55;;;;;;;;;;5035062;28;20509;-68
2021/03/02 14:40:39;;;;;;;14.10;12.38;;;;;;;;;;5034035;28;20121;-67
2021/03/02 14:43:24;;;;;;;14.13;12.73;;;;;;;;;;5032666;28;20401;-66
2021/03/02 14:46:09;;;;;;;13.98;12.52;;;;;;;;;;5033915;28;20045;-65
2021/03/02 14:48:58;;;;;;;13.95;12.57;;;;;;;;;;5033177;28;20049;-68
2021/03/02 14:51:44;;;;;;;12.88;11.48;;;;;;;;;;5033026;28;20045;-68
2021/03/02 14:54:29;;;;;;;12.68;11.32;;;;;;;;;;5013821;28;20046;-65
2021/03/02 14:57:15;;;;;;;13.75;12.35;;;;;;;;;;4999144;28;20046;-66
2021/03/02 15:00:00;;;;;;;13.27;11.98;;;;;;;;;;5025605;28;20038;-66
2021/03/02 15:02:46;;;;;;;12.30;11.15;;;;;;;;;;5016680;28;20041;-66
2021/03/02 15:05:31;;;;;;;13.20;11.80;;;;;;;;;;5016531;28;20128;-65
2021/03/02 15:08:16;;;;;;;13.10;11.80;;;;;;;;;;5033158;28;20037;-66
2021/03/02 15:11:02;;;;;;;13.60;11.82;;;;;;;;;;5032133;28;20041;-68
2021/03/02 15:13:47;;;;;;;13.23;11.40;;;;;;;;;;5011485;28;20054;-65
2021/03/02 15:16:32;;;;;;;13.27;11.93;;;;;;;;;;5013508;28;20042;-66
2021/03/02 15:19:18;;;;;;;14.18;12.68;;;;;;;;;;5013317;28;20556;-65
2021/03/02 15:22:09;;;;;;;13.38;11.93;;;;;;;;;;5013396;28;20076;-66
2021/03/02 15:24:54;;;;;;;15.75;11.30;;;;;;;;;;5014255;28;20046;-66
2021/03/02 15:27:40;;;;;;;12.80;11.55;;;;;;;;;;4998532;28;20066;-66
2021/03/02 15:30:25;;;;;;;14.50;13.00;;;;;;;;;;5013461;28;20046;-66
2021/03/02 15:33:10;;;;;;;13.43;12.02;;;;;;;;;;5007409;28;20049;-66
2021/03/02 15:35:56;;;;;;;13.77;12.38;;;;;;;;;;5031776;28;20401;-66
2021/03/02 15:38:42;;;;;;;12.98;11.63;;;;;;;;;;5018775;28;20124;-65
2021/03/02 15:41:27;;;;;;;13.65;12.25;;;;;;;;;;5027423;28;20398;-66
2021/03/02 15:44:13;;;;;;;15.05;13.55;;;;;;;;;;5030540;28;20413;-67
2021/03/02 15:46:58;;;;;;;16.70;12.55;;;;;;;;;;5032141;28;20041;-65
2021/03/02 15:49:43;;;;;;;15.57;12.95;;;;;;;;;;5017278;28;20049;-66
2021/03/02 15:52:28;;;;;;;14.35;12.85;;;;;;;;;;5014428;28;20045;-67
2021/03/02 15:55:14;;;;;;;14.43;13.02;;;;;;;;;;5031605;28;20108;-66
2021/03/02 15:57:59;;;;;;;14.80;12.32;;;;;;;;;;5031515;28;20041;-67
2021/03/02 16:00:44;;;;;;;13.50;12.20;;;;;;;;;;5030258;28;20050;-66
2021/03/02 16:03:34;;;;;;;14.45;12.07;;;;;;;;;;5024669;28;20042;-68